Tropical Cyclones
[Index]
Main Index Home Page Stock Weather Photos Extreme Storms Discussion Storm News and Storm Chasing Reports Tropical Cyclones / Hurricanes / Typhoons Weather Data and Links Wild Fires / Bushfires Weather Observation Techniques Weather Picture Catalogue Tornado Pictures and Reports Stock Video Footage and DVDs for sale
Season 2017-2018 Tropical Cyclone GITA Track Map
Season 2017-2018 Summaries (Operational Data): [AU] [SIO] [SPAC] [SH]
<<- Previous TC | 2017-2018 Season | Next TC ->>

click for intensity scale information  Lat/long Grid: Show Hide

 Date Labels: Show Hide

Operational Tropical Cyclone Data : JTWC Advisories

Name: GITA
Number: 1809

01 Feb 2018 00:00 UTC to 23 Feb 2018 18:00 UTC

    date/time    lat    long     hPa   cat  kts
2018-02-01 00   14.4   159.1    1010         15          
2018-02-01 06   14.7   159.1    1010         15          
2018-02-01 12   14.8   159.9    1005         15          
2018-02-01 18   14.7   160.7    1004         15          
2018-02-02 00   14.9   161.5    1003         15          
2018-02-02 06   15.2   162.5    1010         15          
2018-02-02 12   15.3   163.4    1002         15          
2018-02-02 18   15.2   164.1    1002         15          
2018-02-03 00   14.5   164.7    1002         15          
2018-02-03 06   13.9   164.8    1010         15          
2018-02-03 12   13.3   165.3    1000         15          
2018-02-03 18   13.1   165.9    1000         15          
2018-02-04 00   13.1   166.3    1002         15          
2018-02-04 06   13.4   166.9    1000         15          
2018-02-04 12   14.0   167.5    1000         15          
2018-02-04 18   14.7   166.7    1000         15          
2018-02-05 00   15.2   165.9    1000         15          
2018-02-05 06   14.9   165.3    1000         15          
2018-02-05 12   14.2   165.3    1000         15          
2018-02-05 18   13.7   165.8    1010         15          
2018-02-06 00   13.2   166.9    1010         15          
2018-02-06 06   12.7   168.5    1002         15          
2018-02-06 12   12.8   169.6    1003         15          
2018-02-06 18   13.7   170.3    1010         15          
2018-02-07 00   14.9   170.6    1002         25          
2018-02-07 06   15.5   171.6    1004         25          
2018-02-07 12   15.6   173.0    1004         25          
2018-02-07 18   15.8   175.1    1002         25          
2018-02-08 00   16.0   177.2    1001         25          
2018-02-08 06   15.4   179.2     999         25          
2018-02-08 12   14.8   178.8W    998         25          
2018-02-08 18   14.5   176.9W    997         25          
2018-02-09 00   14.2   175.9W    992    1    40          
2018-02-09 06   14.3   174.5W    989    1    40          
2018-02-09 12   14.5   173.0W    986    1    45          
2018-02-09 18   15.3   171.4W    982    1    45          
2018-02-10 00   16.1   170.0W    981    2    50          
2018-02-10 06   17.0   169.0W    980    2    50          
2018-02-10 12   18.2   168.5W    988    2    55          
2018-02-10 18   19.3   168.4W    967    3    75          
2018-02-11 00   20.5   168.3W    963    3    85          
2018-02-11 06   20.9   168.9W    956    4    90          
2018-02-11 12   21.4   170.2W    957    4    90          
2018-02-11 18   21.7   171.4W    948    4   100          
2018-02-12 00   21.8   172.6W    944    5   110          
2018-02-12 06   21.8   174.3W    929    5   125          
2018-02-12 12   21.5   175.5W    931    5   125          
2018-02-12 18   21.3   177.1W    930    5   125          
2018-02-13 00   21.2   178.4W    934    5   120          
2018-02-13 06   21.0   179.5W    937    5   115          
2018-02-13 12   21.0   179.5     943    5   110          
2018-02-13 18   21.0   178.6     944    5   110          
2018-02-14 00   21.1   177.7     938    5   115          
2018-02-14 06   21.3   177.0     937    5   115          
2018-02-14 12   21.5   176.0     938    5   115          
2018-02-14 18   21.5   175.3     947    4   105          
2018-02-15 00   21.5   174.2     948    4   105          
2018-02-15 06   21.8   173.4     948    4   105          
2018-02-15 12   22.3   172.2     951    4   100          
2018-02-15 18   22.5   171.1     949    4   100          
2018-02-16 00   22.8   170.0     953    4    95          
2018-02-16 06   23.2   169.0     956    4    90          
2018-02-16 12   23.5   168.0     963    3    80          
2018-02-16 18   23.8   167.3     967    3    75          
2018-02-17 00   24.5   166.4     969    3    70          
2018-02-17 06   24.9   165.6     972    3    65          
2018-02-17 12   25.5   164.7     982    2    55          
2018-02-17 18   26.0   164.1     978    2    60          
2018-02-18 00   26.7   163.3     982    2    55          
2018-02-18 06   27.4   162.6     984    2    50          
2018-02-18 12   28.2   162.4     985    2    50          
2018-02-18 18   29.2   161.9     984    2    50          
2018-02-19 00   30.9   161.9     984    2    50          
2018-02-19 06   32.6   162.6     982    2    55          
2018-02-19 12   33.9   164.2     982    2    55          
2018-02-19 18   35.5   167.0     982    2    55          
2018-02-20 00   37.8   169.2     982    2    55          
2018-02-20 06   40.6   171.2     982    2    55          
2018-02-20 12   42.6   174.2                             
2018-02-20 18   45.0   177.8                             
2018-02-21 00   45.6   177.6                             
2018-02-21 06   46.6   178.0                             
2018-02-21 12   47.8   179.0                             
2018-02-21 18   49.0   178.7W                            
2018-02-22 00   50.4   174.9W                            
2018-02-22 06   52.2   170.2W                            
2018-02-22 12   53.3   166.4W                            
2018-02-22 18   53.7   160.3W                            
2018-02-23 00   55.1   154.9W                            
2018-02-23 06   55.0   149.2W                            
2018-02-23 12   55.9   145.9W                            
2018-02-23 18   55.7   141.6W                            
Winds are 10-min average.

Tropical cyclone tracks developed by Michael Bath using operational warnings and advisories and Google Maps.


[Australian Severe Weather index] [Copyright Notice] [Email Contacts] [Search This Site] [Privacy Policy]
Document: tropical_cyclone_gita.htm Updated: 11 March 2020